sensor_id;sensor_type;location;lat;lon;timestamp;P1;durP1;ratioP1;P2;durP2;ratioP2
297;SDS011;133;49.626;9.680;2023-04-25T00:01:03;6.30;;;5.10;;
297;SDS011;133;49.626;9.680;2023-04-25T00:03:30;5.70;;;5.40;;
297;SDS011;133;49.626;9.680;2023-04-25T00:05:57;5.80;;;5.43;;
297;SDS011;133;49.626;9.680;2023-04-25T00:08:26;6.97;;;5.80;;
297;SDS011;133;49.626;9.680;2023-04-25T00:10:53;7.07;;;5.70;;
297;SDS011;133;49.626;9.680;2023-04-25T00:13:19;5.83;;;5.50;;
297;SDS011;133;49.626;9.680;2023-04-25T00:15:45;6.10;;;5.70;;
297;SDS011;133;49.626;9.680;2023-04-25T00:18:11;5.20;;;4.90;;
297;SDS011;133;49.626;9.680;2023-04-25T00:20:37;6.67;;;5.50;;
297;SDS011;133;49.626;9.680;2023-04-25T00:23:02;6.37;;;5.00;;
297;SDS011;133;49.626;9.680;2023-04-25T00:25:28;5.70;;;5.40;;
297;SDS011;133;49.626;9.680;2023-04-25T00:27:54;7.27;;;5.27;;
297;SDS011;133;49.626;9.680;2023-04-25T00:30:20;5.00;;;4.70;;
297;SDS011;133;49.626;9.680;2023-04-25T00:32:45;8.77;;;5.43;;
297;SDS011;133;49.626;9.680;2023-04-25T00:35:11;6.97;;;5.00;;
297;SDS011;133;49.626;9.680;2023-04-25T00:37:37;5.93;;;4.93;;
297;SDS011;133;49.626;9.680;2023-04-25T00:40:04;6.27;;;5.23;;
297;SDS011;133;49.626;9.680;2023-04-25T00:42:31;7.30;;;5.97;;
297;SDS011;133;49.626;9.680;2023-04-25T00:44:57;5.47;;;5.17;;
297;SDS011;133;49.626;9.680;2023-04-25T00:47:25;5.40;;;5.20;;
297;SDS011;133;49.626;9.680;2023-04-25T00:49:50;6.83;;;5.60;;
297;SDS011;133;49.626;9.680;2023-04-25T00:52:18;5.70;;;5.40;;
297;SDS011;133;49.626;9.680;2023-04-25T00:54:44;8.03;;;5.47;;
297;SDS011;133;49.626;9.680;2023-04-25T00:57:10;8.50;;;5.10;;
297;SDS011;133;49.626;9.680;2023-04-25T00:59:36;5.70;;;5.33;;
297;SDS011;133;49.626;9.680;2023-04-25T01:02:03;5.30;;;5.00;;
297;SDS011;133;49.626;9.680;2023-04-25T01:04:30;5.33;;;5.03;;
297;SDS011;133;49.626;9.680;2023-04-25T01:06:55;6.67;;;5.90;;
297;SDS011;133;49.626;9.680;2023-04-25T01:09:22;7.43;;;6.23;;
297;SDS011;133;49.626;9.680;2023-04-25T01:11:48;8.63;;;5.20;;
297;SDS011;133;49.626;9.680;2023-04-25T01:14:14;5.70;;;5.40;;
297;SDS011;133;49.626;9.680;2023-04-25T01:16:40;7.20;;;5.40;;
297;SDS011;133;49.626;9.680;2023-04-25T01:19:09;7.07;;;6.10;;
297;SDS011;133;49.626;9.680;2023-04-25T01:21:38;8.10;;;6.30;;
297;SDS011;133;49.626;9.680;2023-04-25T01:24:04;7.70;;;6.27;;
297;SDS011;133;49.626;9.680;2023-04-25T01:26:31;7.23;;;6.33;;
297;SDS011;133;49.626;9.680;2023-04-25T01:28:57;7.50;;;6.50;;
297;SDS011;133;49.626;9.680;2023-04-25T01:31:23;7.33;;;6.50;;
297;SDS011;133;49.626;9.680;2023-04-25T01:33:50;7.07;;;6.67;;
297;SDS011;133;49.626;9.680;2023-04-25T01:36:17;7.50;;;7.07;;
297;SDS011;133;49.626;9.680;2023-04-25T01:38:43;7.23;;;6.70;;
297;SDS011;133;49.626;9.680;2023-04-25T01:41:09;8.00;;;6.73;;
297;SDS011;133;49.626;9.680;2023-04-25T01:43:35;7.10;;;6.60;;
297;SDS011;133;49.626;9.680;2023-04-25T01:46:00;7.70;;;6.67;;
297;SDS011;133;49.626;9.680;2023-04-25T01:48:26;6.50;;;5.90;;
297;SDS011;133;49.626;9.680;2023-04-25T01:50:52;9.67;;;7.67;;
297;SDS011;133;49.626;9.680;2023-04-25T01:53:17;7.47;;;6.57;;
297;SDS011;133;49.626;9.680;2023-04-25T01:55:43;7.47;;;6.37;;
297;SDS011;133;49.626;9.680;2023-04-25T01:58:09;7.03;;;6.13;;
297;SDS011;133;49.626;9.680;2023-04-25T02:00:37;10.70;;;7.33;;
297;SDS011;133;49.626;9.680;2023-04-25T02:03:03;8.67;;;6.97;;
297;SDS011;133;49.626;9.680;2023-04-25T02:05:36;5.40;;;5.10;;
297;SDS011;133;49.626;9.680;2023-04-25T02:08:06;5.13;;;4.83;;
297;SDS011;133;49.626;9.680;2023-04-25T02:10:35;4.30;;;4.00;;
297;SDS011;133;49.626;9.680;2023-04-25T02:13:01;3.60;;;3.40;;
297;SDS011;133;49.626;9.680;2023-04-25T02:15:27;3.70;;;3.50;;
297;SDS011;133;49.626;9.680;2023-04-25T02:17:52;4.10;;;3.20;;
297;SDS011;133;49.626;9.680;2023-04-25T02:20:20;3.23;;;3.03;;
297;SDS011;133;49.626;9.680;2023-04-25T02:22:46;3.37;;;3.17;;
297;SDS011;133;49.626;9.680;2023-04-25T02:25:12;3.70;;;3.30;;
297;SDS011;133;49.626;9.680;2023-04-25T02:27:38;3.13;;;2.93;;
297;SDS011;133;49.626;9.680;2023-04-25T02:30:04;3.50;;;3.30;;
297;SDS011;133;49.626;9.680;2023-04-25T02:32:31;3.00;;;2.80;;
297;SDS011;133;49.626;9.680;2023-04-25T02:34:59;3.40;;;3.20;;
297;SDS011;133;49.626;9.680;2023-04-25T02:37:28;3.37;;;3.17;;
297;SDS011;133;49.626;9.680;2023-04-25T02:39:54;3.97;;;3.37;;
297;SDS011;133;49.626;9.680;2023-04-25T02:42:20;4.80;;;3.73;;
297;SDS011;133;49.626;9.680;2023-04-25T02:44:46;4.40;;;4.10;;
297;SDS011;133;49.626;9.680;2023-04-25T02:47:11;3.57;;;3.37;;
297;SDS011;133;49.626;9.680;2023-04-25T02:49:37;3.37;;;3.17;;
297;SDS011;133;49.626;9.680;2023-04-25T02:52:03;3.90;;;3.70;;
297;SDS011;133;49.626;9.680;2023-04-25T02:54:29;4.60;;;4.20;;
297;SDS011;133;49.626;9.680;2023-04-25T02:56:55;3.53;;;3.33;;
297;SDS011;133;49.626;9.680;2023-04-25T02:59:20;3.90;;;3.70;;
297;SDS011;133;49.626;9.680;2023-04-25T03:01:46;3.87;;;3.50;;
297;SDS011;133;49.626;9.680;2023-04-25T03:04:12;5.80;;;3.83;;
297;SDS011;133;49.626;9.680;2023-04-25T03:06:37;4.10;;;3.90;;
297;SDS011;133;49.626;9.680;2023-04-25T03:09:03;3.90;;;3.70;;
297;SDS011;133;49.626;9.680;2023-04-25T03:11:29;3.50;;;3.30;;
297;SDS011;133;49.626;9.680;2023-04-25T03:13:54;4.17;;;3.50;;
297;SDS011;133;49.626;9.680;2023-04-25T03:16:20;4.33;;;4.03;;
297;SDS011;133;49.626;9.680;2023-04-25T03:18:46;7.27;;;4.43;;
297;SDS011;133;49.626;9.680;2023-04-25T03:21:12;4.40;;;4.20;;
297;SDS011;133;49.626;9.680;2023-04-25T03:23:38;4.00;;;3.80;;
297;SDS011;133;49.626;9.680;2023-04-25T03:26:03;3.87;;;3.67;;
297;SDS011;133;49.626;9.680;2023-04-25T03:28:29;3.90;;;3.70;;
297;SDS011;133;49.626;9.680;2023-04-25T03:30:54;4.40;;;4.10;;
297;SDS011;133;49.626;9.680;2023-04-25T03:33:20;4.10;;;3.90;;
297;SDS011;133;49.626;9.680;2023-04-25T03:35:46;4.50;;;4.20;;
297;SDS011;133;49.626;9.680;2023-04-25T03:38:11;3.50;;;3.30;;
297;SDS011;133;49.626;9.680;2023-04-25T03:40:37;4.13;;;3.90;;
297;SDS011;133;49.626;9.680;2023-04-25T03:43:02;4.97;;;4.67;;
297;SDS011;133;49.626;9.680;2023-04-25T03:45:28;5.97;;;5.30;;
297;SDS011;133;49.626;9.680;2023-04-25T03:47:53;4.97;;;4.67;;
297;SDS011;133;49.626;9.680;2023-04-25T03:50:19;5.50;;;5.20;;
297;SDS011;133;49.626;9.680;2023-04-25T03:52:45;5.47;;;5.17;;
297;SDS011;133;49.626;9.680;2023-04-25T03:55:10;5.00;;;4.70;;
297;SDS011;133;49.626;9.680;2023-04-25T03:57:36;7.13;;;5.23;;
297;SDS011;133;49.626;9.680;2023-04-25T04:00:02;5.73;;;5.50;;
297;SDS011;133;49.626;9.680;2023-04-25T04:02:29;4.90;;;4.60;;
297;SDS011;133;49.626;9.680;2023-04-25T04:04:54;7.30;;;4.70;;
297;SDS011;133;49.626;9.680;2023-04-25T04:07:21;6.30;;;5.40;;
297;SDS011;133;49.626;9.680;2023-04-25T04:09:47;6.50;;;5.50;;
297;SDS011;133;49.626;9.680;2023-04-25T04:12:12;6.70;;;5.90;;
297;SDS011;133;49.626;9.680;2023-04-25T04:14:38;6.47;;;6.13;;
297;SDS011;133;49.626;9.680;2023-04-25T04:17:03;7.33;;;5.60;;
297;SDS011;133;49.626;9.680;2023-04-25T04:19:30;6.67;;;6.20;;
297;SDS011;133;49.626;9.680;2023-04-25T04:21:56;5.77;;;5.50;;
297;SDS011;133;49.626;9.680;2023-04-25T04:24:22;7.20;;;5.50;;
297;SDS011;133;49.626;9.680;2023-04-25T04:26:47;7.70;;;5.97;;
297;SDS011;133;49.626;9.680;2023-04-25T04:29:13;6.70;;;5.83;;
297;SDS011;133;49.626;9.680;2023-04-25T04:31:46;7.80;;;6.30;;
297;SDS011;133;49.626;9.680;2023-04-25T04:34:15;9.60;;;6.97;;
297;SDS011;133;49.626;9.680;2023-04-25T04:36:44;7.10;;;6.20;;
297;SDS011;133;49.626;9.680;2023-04-25T04:39:11;8.87;;;7.37;;
297;SDS011;133;49.626;9.680;2023-04-25T04:41:37;8.50;;;7.20;;
297;SDS011;133;49.626;9.680;2023-04-25T04:44:03;9.93;;;7.73;;
297;SDS011;133;49.626;9.680;2023-04-25T04:46:29;8.87;;;7.27;;
297;SDS011;133;49.626;9.680;2023-04-25T04:48:56;9.70;;;7.37;;
297;SDS011;133;49.626;9.680;2023-04-25T04:51:22;10.37;;;7.77;;
297;SDS011;133;49.626;9.680;2023-04-25T04:53:47;10.50;;;8.20;;
297;SDS011;133;49.626;9.680;2023-04-25T04:56:13;9.70;;;7.40;;
297;SDS011;133;49.626;9.680;2023-04-25T04:58:39;8.70;;;7.20;;
297;SDS011;133;49.626;9.680;2023-04-25T05:01:04;8.80;;;7.17;;
297;SDS011;133;49.626;9.680;2023-04-25T05:03:30;9.90;;;7.23;;
297;SDS011;133;49.626;9.680;2023-04-25T05:05:56;7.87;;;7.20;;
297;SDS011;133;49.626;9.680;2023-04-25T05:08:22;8.17;;;7.10;;
297;SDS011;133;49.626;9.680;2023-04-25T05:10:47;8.13;;;6.97;;
297;SDS011;133;49.626;9.680;2023-04-25T05:13:13;9.10;;;7.27;;
297;SDS011;133;49.626;9.680;2023-04-25T05:15:38;8.77;;;7.00;;
297;SDS011;133;49.626;9.680;2023-04-25T05:18:04;8.67;;;7.43;;
297;SDS011;133;49.626;9.680;2023-04-25T05:20:30;7.80;;;6.80;;
297;SDS011;133;49.626;9.680;2023-04-25T05:22:55;8.13;;;7.00;;
297;SDS011;133;49.626;9.680;2023-04-25T05:25:21;9.90;;;8.10;;
297;SDS011;133;49.626;9.680;2023-04-25T05:27:46;12.60;;;10.07;;
297;SDS011;133;49.626;9.680;2023-04-25T05:30:12;10.20;;;8.70;;
297;SDS011;133;49.626;9.680;2023-04-25T05:32:38;17.33;;;13.80;;
297;SDS011;133;49.626;9.680;2023-04-25T05:35:03;20.93;;;15.10;;
297;SDS011;133;49.626;9.680;2023-04-25T05:37:31;14.33;;;11.00;;
297;SDS011;133;49.626;9.680;2023-04-25T05:39:57;8.03;;;7.43;;
297;SDS011;133;49.626;9.680;2023-04-25T05:42:23;7.63;;;6.50;;
297;SDS011;133;49.626;9.680;2023-04-25T05:44:49;8.77;;;6.83;;
297;SDS011;133;49.626;9.680;2023-04-25T05:47:14;10.57;;;8.40;;
297;SDS011;133;49.626;9.680;2023-04-25T05:49:40;9.00;;;7.00;;
297;SDS011;133;49.626;9.680;2023-04-25T05:52:05;8.60;;;7.03;;
297;SDS011;133;49.626;9.680;2023-04-25T05:54:31;7.97;;;7.10;;
297;SDS011;133;49.626;9.680;2023-04-25T05:56:57;9.03;;;7.17;;
297;SDS011;133;49.626;9.680;2023-04-25T05:59:22;9.00;;;6.90;;
297;SDS011;133;49.626;9.680;2023-04-25T06:01:48;14.80;;;9.07;;
297;SDS011;133;49.626;9.680;2023-04-25T06:04:14;10.70;;;7.60;;
297;SDS011;133;49.626;9.680;2023-04-25T06:06:39;10.57;;;7.63;;
297;SDS011;133;49.626;9.680;2023-04-25T06:09:05;14.30;;;8.40;;
297;SDS011;133;49.626;9.680;2023-04-25T06:11:30;15.60;;;9.43;;
297;SDS011;133;49.626;9.680;2023-04-25T06:13:56;8.50;;;7.93;;
297;SDS011;133;49.626;9.680;2023-04-25T06:16:21;13.27;;;9.97;;
297;SDS011;133;49.626;9.680;2023-04-25T06:18:47;9.37;;;8.60;;
297;SDS011;133;49.626;9.680;2023-04-25T06:21:13;9.10;;;8.33;;
297;SDS011;133;49.626;9.680;2023-04-25T06:23:38;9.90;;;8.33;;
297;SDS011;133;49.626;9.680;2023-04-25T06:26:04;10.60;;;8.60;;
297;SDS011;133;49.626;9.680;2023-04-25T06:28:29;11.80;;;9.00;;
297;SDS011;133;49.626;9.680;2023-04-25T06:30:56;11.93;;;9.77;;
297;SDS011;133;49.626;9.680;2023-04-25T06:33:22;10.20;;;8.90;;
297;SDS011;133;49.626;9.680;2023-04-25T06:35:49;12.73;;;9.00;;
297;SDS011;133;49.626;9.680;2023-04-25T06:38:15;10.60;;;8.83;;
297;SDS011;133;49.626;9.680;2023-04-25T06:40:40;13.10;;;9.20;;
297;SDS011;133;49.626;9.680;2023-04-25T06:43:06;11.13;;;8.40;;
297;SDS011;133;49.626;9.680;2023-04-25T06:45:31;8.97;;;7.50;;
297;SDS011;133;49.626;9.680;2023-04-25T06:47:57;10.93;;;9.10;;
297;SDS011;133;49.626;9.680;2023-04-25T06:50:23;13.60;;;9.20;;
297;SDS011;133;49.626;9.680;2023-04-25T06:52:48;11.03;;;8.87;;
297;SDS011;133;49.626;9.680;2023-04-25T06:55:14;11.00;;;8.77;;
297;SDS011;133;49.626;9.680;2023-04-25T06:57:39;16.00;;;10.07;;
297;SDS011;133;49.626;9.680;2023-04-25T07:00:05;10.87;;;8.77;;
297;SDS011;133;49.626;9.680;2023-04-25T07:02:34;14.57;;;9.00;;
297;SDS011;133;49.626;9.680;2023-04-25T07:05:00;9.57;;;8.77;;
297;SDS011;133;49.626;9.680;2023-04-25T07:07:26;14.00;;;10.63;;
297;SDS011;133;49.626;9.680;2023-04-25T07:09:52;11.03;;;9.03;;
297;SDS011;133;49.626;9.680;2023-04-25T07:12:17;12.27;;;9.27;;
297;SDS011;133;49.626;9.680;2023-04-25T07:14:43;9.57;;;8.70;;
297;SDS011;133;49.626;9.680;2023-04-25T07:17:08;15.57;;;9.93;;
297;SDS011;133;49.626;9.680;2023-04-25T07:19:34;11.83;;;8.70;;
297;SDS011;133;49.626;9.680;2023-04-25T07:22:00;11.50;;;9.30;;
297;SDS011;133;49.626;9.680;2023-04-25T07:24:26;10.47;;;8.43;;
297;SDS011;133;49.626;9.680;2023-04-25T07:26:51;11.80;;;9.40;;
297;SDS011;133;49.626;9.680;2023-04-25T07:29:17;12.80;;;8.80;;
297;SDS011;133;49.626;9.680;2023-04-25T07:31:42;15.50;;;9.37;;
297;SDS011;133;49.626;9.680;2023-04-25T07:34:08;11.80;;;9.03;;
297;SDS011;133;49.626;9.680;2023-04-25T07:36:34;11.53;;;9.13;;
297;SDS011;133;49.626;9.680;2023-04-25T07:38:59;14.63;;;9.10;;
297;SDS011;133;49.626;9.680;2023-04-25T07:41:25;12.90;;;8.83;;
297;SDS011;133;49.626;9.680;2023-04-25T07:43:51;13.03;;;8.83;;
297;SDS011;133;49.626;9.680;2023-04-25T07:46:16;12.37;;;10.10;;
297;SDS011;133;49.626;9.680;2023-04-25T07:48:42;12.83;;;9.10;;
297;SDS011;133;49.626;9.680;2023-04-25T07:51:07;11.50;;;9.23;;
297;SDS011;133;49.626;9.680;2023-04-25T07:53:33;12.70;;;10.13;;
297;SDS011;133;49.626;9.680;2023-04-25T07:55:59;12.07;;;10.57;;
297;SDS011;133;49.626;9.680;2023-04-25T07:58:25;13.37;;;10.10;;
297;SDS011;133;49.626;9.680;2023-04-25T08:00:51;19.60;;;12.70;;
297;SDS011;133;49.626;9.680;2023-04-25T08:03:16;12.33;;;9.37;;
297;SDS011;133;49.626;9.680;2023-04-25T08:05:42;16.63;;;9.60;;
297;SDS011;133;49.626;9.680;2023-04-25T08:08:08;11.60;;;7.90;;
297;SDS011;133;49.626;9.680;2023-04-25T08:10:33;9.07;;;6.60;;
297;SDS011;133;49.626;9.680;2023-04-25T08:12:59;11.43;;;6.43;;
297;SDS011;133;49.626;9.680;2023-04-25T08:15:25;12.03;;;7.33;;
297;SDS011;133;49.626;9.680;2023-04-25T08:17:51;9.97;;;6.90;;
297;SDS011;133;49.626;9.680;2023-04-25T08:20:16;10.30;;;6.83;;
297;SDS011;133;49.626;9.680;2023-04-25T08:22:42;14.50;;;7.03;;
297;SDS011;133;49.626;9.680;2023-04-25T08:25:08;14.27;;;6.67;;
297;SDS011;133;49.626;9.680;2023-04-25T08:27:34;8.37;;;5.27;;
297;SDS011;133;49.626;9.680;2023-04-25T08:30:00;8.73;;;5.07;;
297;SDS011;133;49.626;9.680;2023-04-25T08:32:26;6.63;;;4.87;;
297;SDS011;133;49.626;9.680;2023-04-25T08:34:52;7.37;;;5.60;;
297;SDS011;133;49.626;9.680;2023-04-25T08:37:20;9.83;;;5.83;;
297;SDS011;133;49.626;9.680;2023-04-25T08:39:46;14.73;;;6.63;;
297;SDS011;133;49.626;9.680;2023-04-25T08:42:13;10.20;;;6.57;;
297;SDS011;133;49.626;9.680;2023-04-25T08:44:42;9.13;;;6.00;;
297;SDS011;133;49.626;9.680;2023-04-25T08:47:10;5.70;;;4.70;;
297;SDS011;133;49.626;9.680;2023-04-25T08:49:35;11.30;;;4.67;;
297;SDS011;133;49.626;9.680;2023-04-25T08:52:03;6.83;;;4.90;;
297;SDS011;133;49.626;9.680;2023-04-25T08:54:32;7.73;;;4.90;;
297;SDS011;133;49.626;9.680;2023-04-25T08:57:01;5.77;;;4.03;;
297;SDS011;133;49.626;9.680;2023-04-25T08:59:29;5.37;;;4.03;;
297;SDS011;133;49.626;9.680;2023-04-25T09:01:56;7.10;;;4.20;;
297;SDS011;133;49.626;9.680;2023-04-25T09:04:22;6.27;;;4.33;;
297;SDS011;133;49.626;9.680;2023-04-25T09:06:47;7.40;;;4.00;;
297;SDS011;133;49.626;9.680;2023-04-25T09:09:13;7.00;;;4.70;;
297;SDS011;133;49.626;9.680;2023-04-25T09:11:39;4.23;;;3.80;;
297;SDS011;133;49.626;9.680;2023-04-25T09:14:12;9.23;;;4.73;;
297;SDS011;133;49.626;9.680;2023-04-25T09:19:27;5.67;;;4.40;;
297;SDS011;133;49.626;9.680;2023-04-25T09:21:58;5.00;;;3.73;;
297;SDS011;133;49.626;9.680;2023-04-25T09:27:08;8.20;;;4.53;;
297;SDS011;133;49.626;9.680;2023-04-25T09:29:36;5.73;;;4.13;;
297;SDS011;133;49.626;9.680;2023-04-25T09:32:19;5.70;;;4.43;;
297;SDS011;133;49.626;9.680;2023-04-25T09:34:50;6.90;;;4.40;;
297;SDS011;133;49.626;9.680;2023-04-25T09:37:23;8.03;;;4.73;;
297;SDS011;133;49.626;9.680;2023-04-25T09:39:54;3.80;;;3.57;;
297;SDS011;133;49.626;9.680;2023-04-25T09:42:22;6.27;;;4.80;;
297;SDS011;133;49.626;9.680;2023-04-25T09:44:49;7.27;;;3.97;;
297;SDS011;133;49.626;9.680;2023-04-25T09:47:17;5.80;;;4.50;;
297;SDS011;133;49.626;9.680;2023-04-25T09:49:43;8.73;;;4.90;;
297;SDS011;133;49.626;9.680;2023-04-25T09:52:13;6.60;;;4.40;;
297;SDS011;133;49.626;9.680;2023-04-25T09:54:44;6.23;;;3.97;;
297;SDS011;133;49.626;9.680;2023-04-25T09:57:28;5.97;;;4.47;;
297;SDS011;133;49.626;9.680;2023-04-25T09:59:54;10.50;;;5.20;;
297;SDS011;133;49.626;9.680;2023-04-25T10:02:24;7.90;;;5.30;;
297;SDS011;133;49.626;9.680;2023-04-25T10:04:52;7.60;;;5.20;;
297;SDS011;133;49.626;9.680;2023-04-25T10:07:20;9.87;;;5.17;;
297;SDS011;133;49.626;9.680;2023-04-25T10:09:51;9.40;;;4.63;;
297;SDS011;133;49.626;9.680;2023-04-25T10:12:26;4.60;;;3.43;;
297;SDS011;133;49.626;9.680;2023-04-25T10:14:52;6.00;;;4.00;;
297;SDS011;133;49.626;9.680;2023-04-25T10:17:19;8.10;;;4.33;;
297;SDS011;133;49.626;9.680;2023-04-25T10:19:48;3.80;;;3.60;;
297;SDS011;133;49.626;9.680;2023-04-25T10:22:16;6.60;;;4.63;;
297;SDS011;133;49.626;9.680;2023-04-25T10:24:45;4.20;;;3.97;;
297;SDS011;133;49.626;9.680;2023-04-25T10:27:12;5.00;;;3.90;;
297;SDS011;133;49.626;9.680;2023-04-25T10:29:37;7.40;;;4.40;;
297;SDS011;133;49.626;9.680;2023-04-25T10:32:03;4.93;;;3.83;;
297;SDS011;133;49.626;9.680;2023-04-25T10:34:42;5.40;;;4.17;;
297;SDS011;133;49.626;9.680;2023-04-25T10:37:11;5.00;;;4.33;;
297;SDS011;133;49.626;9.680;2023-04-25T10:39:38;3.97;;;3.23;;
297;SDS011;133;49.626;9.680;2023-04-25T10:42:05;7.13;;;4.47;;
297;SDS011;133;49.626;9.680;2023-04-25T10:44:32;7.77;;;4.30;;
297;SDS011;133;49.626;9.680;2023-04-25T10:47:00;4.40;;;3.87;;
297;SDS011;133;49.626;9.680;2023-04-25T10:49:30;8.23;;;4.30;;
297;SDS011;133;49.626;9.680;2023-04-25T10:54:55;6.67;;;4.37;;
297;SDS011;133;49.626;9.680;2023-04-25T10:57:31;4.93;;;3.93;;
297;SDS011;133;49.626;9.680;2023-04-25T11:02:45;5.57;;;4.23;;
297;SDS011;133;49.626;9.680;2023-04-25T11:05:22;6.03;;;4.50;;
297;SDS011;133;49.626;9.680;2023-04-25T11:08:11;5.57;;;4.10;;
297;SDS011;133;49.626;9.680;2023-04-25T11:10:39;5.93;;;4.40;;
297;SDS011;133;49.626;9.680;2023-04-25T11:13:05;5.87;;;4.30;;
297;SDS011;133;49.626;9.680;2023-04-25T11:15:31;4.50;;;3.90;;
297;SDS011;133;49.626;9.680;2023-04-25T11:17:56;5.77;;;4.10;;
297;SDS011;133;49.626;9.680;2023-04-25T11:20:22;10.03;;;4.30;;
297;SDS011;133;49.626;9.680;2023-04-25T11:22:51;9.63;;;4.43;;
297;SDS011;133;49.626;9.680;2023-04-25T11:25:16;6.93;;;4.37;;
297;SDS011;133;49.626;9.680;2023-04-25T11:30:22;10.63;;;6.50;;
297;SDS011;133;49.626;9.680;2023-04-25T11:32:49;8.50;;;5.20;;
297;SDS011;133;49.626;9.680;2023-04-25T11:35:15;18.40;;;10.23;;
297;SDS011;133;49.626;9.680;2023-04-25T11:37:41;7.30;;;4.80;;
297;SDS011;133;49.626;9.680;2023-04-25T11:40:08;5.20;;;4.20;;
297;SDS011;133;49.626;9.680;2023-04-25T11:42:45;7.40;;;4.40;;
297;SDS011;133;49.626;9.680;2023-04-25T11:45:12;8.70;;;5.43;;
297;SDS011;133;49.626;9.680;2023-04-25T11:47:38;5.13;;;4.83;;
297;SDS011;133;49.626;9.680;2023-04-25T11:50:04;7.03;;;4.20;;
297;SDS011;133;49.626;9.680;2023-04-25T11:52:50;6.63;;;4.87;;
297;SDS011;133;49.626;9.680;2023-04-25T11:55:17;9.57;;;4.93;;
297;SDS011;133;49.626;9.680;2023-04-25T11:57:46;7.27;;;4.43;;
297;SDS011;133;49.626;9.680;2023-04-25T12:00:15;6.50;;;4.73;;
297;SDS011;133;49.626;9.680;2023-04-25T12:02:42;5.27;;;4.73;;
297;SDS011;133;49.626;9.680;2023-04-25T12:05:09;9.70;;;4.63;;
297;SDS011;133;49.626;9.680;2023-04-25T12:07:36;8.80;;;4.60;;
297;SDS011;133;49.626;9.680;2023-04-25T12:10:09;6.77;;;4.57;;
297;SDS011;133;49.626;9.680;2023-04-25T12:12:37;8.20;;;4.23;;
297;SDS011;133;49.626;9.680;2023-04-25T12:15:22;6.40;;;4.33;;
297;SDS011;133;49.626;9.680;2023-04-25T12:17:50;5.43;;;4.67;;
297;SDS011;133;49.626;9.680;2023-04-25T12:20:24;5.90;;;4.30;;
297;SDS011;133;49.626;9.680;2023-04-25T12:22:50;5.97;;;4.20;;
297;SDS011;133;49.626;9.680;2023-04-25T12:25:39;7.87;;;4.17;;
297;SDS011;133;49.626;9.680;2023-04-25T12:30:52;6.80;;;5.10;;
297;SDS011;133;49.626;9.680;2023-04-25T12:33:19;8.20;;;4.60;;
297;SDS011;133;49.626;9.680;2023-04-25T12:35:46;5.93;;;4.60;;
297;SDS011;133;49.626;9.680;2023-04-25T12:38:20;7.50;;;4.97;;
297;SDS011;133;49.626;9.680;2023-04-25T12:40:49;9.10;;;4.47;;
297;SDS011;133;49.626;9.680;2023-04-25T12:43:15;7.87;;;4.70;;
297;SDS011;133;49.626;9.680;2023-04-25T12:45:41;11.77;;;5.40;;
297;SDS011;133;49.626;9.680;2023-04-25T12:48:06;5.27;;;4.50;;
297;SDS011;133;49.626;9.680;2023-04-25T12:50:32;5.00;;;4.20;;
297;SDS011;133;49.626;9.680;2023-04-25T12:52:57;6.67;;;4.17;;
297;SDS011;133;49.626;9.680;2023-04-25T12:55:23;6.90;;;4.53;;
297;SDS011;133;49.626;9.680;2023-04-25T12:57:49;7.40;;;5.17;;
297;SDS011;133;49.626;9.680;2023-04-25T13:00:14;5.67;;;4.70;;
297;SDS011;133;49.626;9.680;2023-04-25T13:02:43;6.27;;;4.90;;
297;SDS011;133;49.626;9.680;2023-04-25T13:05:08;6.30;;;4.77;;
297;SDS011;133;49.626;9.680;2023-04-25T13:07:34;6.90;;;4.77;;
297;SDS011;133;49.626;9.680;2023-04-25T13:09:59;6.90;;;4.77;;
297;SDS011;133;49.626;9.680;2023-04-25T13:12:27;8.97;;;4.97;;
297;SDS011;133;49.626;9.680;2023-04-25T13:14:53;6.63;;;5.07;;
297;SDS011;133;49.626;9.680;2023-04-25T13:17:18;5.90;;;4.40;;
297;SDS011;133;49.626;9.680;2023-04-25T13:19:44;9.60;;;4.90;;
297;SDS011;133;49.626;9.680;2023-04-25T13:22:10;6.87;;;4.87;;
297;SDS011;133;49.626;9.680;2023-04-25T13:24:36;5.27;;;4.20;;
297;SDS011;133;49.626;9.680;2023-04-25T13:27:01;5.23;;;4.23;;
297;SDS011;133;49.626;9.680;2023-04-25T13:29:28;6.57;;;5.03;;
297;SDS011;133;49.626;9.680;2023-04-25T13:31:53;6.90;;;4.80;;
297;SDS011;133;49.626;9.680;2023-04-25T13:34:19;7.00;;;5.43;;
297;SDS011;133;49.626;9.680;2023-04-25T13:36:45;8.77;;;5.47;;
297;SDS011;133;49.626;9.680;2023-04-25T13:39:11;6.20;;;5.03;;
297;SDS011;133;49.626;9.680;2023-04-25T13:41:37;7.13;;;5.00;;
297;SDS011;133;49.626;9.680;2023-04-25T13:44:02;5.10;;;4.63;;
297;SDS011;133;49.626;9.680;2023-04-25T13:46:28;8.10;;;5.10;;
297;SDS011;133;49.626;9.680;2023-04-25T13:48:54;9.03;;;5.70;;
297;SDS011;133;49.626;9.680;2023-04-25T13:51:19;5.77;;;5.53;;
297;SDS011;133;49.626;9.680;2023-04-25T13:53:45;7.93;;;5.17;;
297;SDS011;133;49.626;9.680;2023-04-25T13:56:11;5.53;;;4.97;;
297;SDS011;133;49.626;9.680;2023-04-25T13:58:37;8.43;;;5.30;;
297;SDS011;133;49.626;9.680;2023-04-25T14:01:03;6.30;;;5.60;;
297;SDS011;133;49.626;9.680;2023-04-25T14:03:28;9.70;;;5.70;;
297;SDS011;133;49.626;9.680;2023-04-25T14:05:55;5.90;;;5.23;;
297;SDS011;133;49.626;9.680;2023-04-25T14:08:20;8.47;;;6.20;;
297;SDS011;133;49.626;9.680;2023-04-25T14:10:46;10.17;;;5.63;;
297;SDS011;133;49.626;9.680;2023-04-25T14:13:12;6.87;;;5.20;;
297;SDS011;133;49.626;9.680;2023-04-25T14:15:37;6.00;;;5.10;;
297;SDS011;133;49.626;9.680;2023-04-25T14:18:03;7.73;;;5.40;;
297;SDS011;133;49.626;9.680;2023-04-25T14:20:29;6.30;;;4.60;;
297;SDS011;133;49.626;9.680;2023-04-25T14:22:55;7.27;;;5.07;;
297;SDS011;133;49.626;9.680;2023-04-25T14:25:23;5.73;;;4.60;;
297;SDS011;133;49.626;9.680;2023-04-25T14:27:49;5.50;;;4.67;;
297;SDS011;133;49.626;9.680;2023-04-25T14:30:16;5.57;;;5.27;;
297;SDS011;133;49.626;9.680;2023-04-25T14:32:42;5.43;;;5.10;;
297;SDS011;133;49.626;9.680;2023-04-25T14:35:08;7.97;;;4.90;;
297;SDS011;133;49.626;9.680;2023-04-25T14:37:35;8.63;;;5.80;;
297;SDS011;133;49.626;9.680;2023-04-25T14:40:00;7.43;;;5.30;;
297;SDS011;133;49.626;9.680;2023-04-25T14:42:26;7.90;;;4.90;;
297;SDS011;133;49.626;9.680;2023-04-25T14:44:52;5.87;;;4.77;;
297;SDS011;133;49.626;9.680;2023-04-25T14:47:17;6.60;;;4.70;;
297;SDS011;133;49.626;9.680;2023-04-25T14:49:43;5.23;;;4.67;;
297;SDS011;133;49.626;9.680;2023-04-25T14:52:11;7.83;;;4.97;;
297;SDS011;133;49.626;9.680;2023-04-25T14:54:37;6.00;;;4.77;;
297;SDS011;133;49.626;9.680;2023-04-25T14:57:02;6.47;;;4.70;;
297;SDS011;133;49.626;9.680;2023-04-25T14:59:28;6.60;;;5.57;;
297;SDS011;133;49.626;9.680;2023-04-25T15:01:54;8.97;;;5.40;;
297;SDS011;133;49.626;9.680;2023-04-25T15:04:20;8.13;;;5.00;;
297;SDS011;133;49.626;9.680;2023-04-25T15:06:46;5.97;;;4.80;;
297;SDS011;133;49.626;9.680;2023-04-25T15:09:11;6.97;;;5.17;;
297;SDS011;133;49.626;9.680;2023-04-25T15:11:37;6.00;;;4.50;;
297;SDS011;133;49.626;9.680;2023-04-25T15:14:03;10.27;;;5.40;;
297;SDS011;133;49.626;9.680;2023-04-25T15:16:29;7.50;;;4.80;;
297;SDS011;133;49.626;9.680;2023-04-25T15:18:55;9.47;;;5.27;;
297;SDS011;133;49.626;9.680;2023-04-25T15:21:21;6.40;;;4.73;;
297;SDS011;133;49.626;9.680;2023-04-25T15:23:47;7.40;;;5.13;;
297;SDS011;133;49.626;9.680;2023-04-25T15:26:12;7.37;;;4.57;;
297;SDS011;133;49.626;9.680;2023-04-25T15:28:38;7.03;;;4.57;;
297;SDS011;133;49.626;9.680;2023-04-25T15:31:04;7.70;;;4.73;;
297;SDS011;133;49.626;9.680;2023-04-25T15:33:29;8.03;;;4.87;;
297;SDS011;133;49.626;9.680;2023-04-25T15:35:55;8.30;;;5.50;;
297;SDS011;133;49.626;9.680;2023-04-25T15:38:22;7.80;;;5.17;;
297;SDS011;133;49.626;9.680;2023-04-25T15:40:48;6.70;;;5.03;;
297;SDS011;133;49.626;9.680;2023-04-25T15:43:14;12.33;;;5.40;;
297;SDS011;133;49.626;9.680;2023-04-25T15:45:41;5.00;;;4.33;;
297;SDS011;133;49.626;9.680;2023-04-25T15:48:07;9.10;;;5.10;;
297;SDS011;133;49.626;9.680;2023-04-25T15:50:32;6.50;;;4.57;;
297;SDS011;133;49.626;9.680;2023-04-25T15:53:00;8.67;;;5.47;;
297;SDS011;133;49.626;9.680;2023-04-25T15:55:25;5.40;;;4.63;;